TimeMST,TemperatureF,Dew PointF,Humidity,Sea Level PressureIn,VisibilityMPH,Wind Direction,Wind SpeedMPH,Gust SpeedMPH,PrecipitationIn,Events,Conditions,WindDirDegrees,DateUTC
12:53 AM,24.1,18.0,77,30.23,10.0,Calm,Calm,-,N/A,,Clear,0,2012-12-04 07:53:00
1:53 AM,27.0,18.0,69,30.17,10.0,NNE,3.5,-,N/A,,Clear,20,2012-12-04 08:53:00
2:53 AM,28.0,19.0,69,30.15,10.0,Calm,Calm,-,N/A,,Clear,0,2012-12-04 09:53:00
3:53 AM,28.0,19.0,69,30.12,10.0,SW,3.5,-,N/A,,Mostly Cloudy,230,2012-12-04 10:53:00
4:53 AM,28.0,19.0,69,30.12,10.0,Calm,Calm,-,N/A,,Mostly Cloudy,0,2012-12-04 11:53:00
5:53 AM,33.1,19.9,59,30.08,10.0,South,10.4,18.4,N/A,,Overcast,190,2012-12-04 12:53:00
6:53 AM,33.1,21.0,61,30.09,10.0,South,15.0,20.7,N/A,,Overcast,180,2012-12-04 13:53:00
7:53 AM,34.0,23.0,64,30.05,10.0,SSW,12.7,16.1,N/A,,Overcast,200,2012-12-04 14:53:00
8:53 AM,33.1,24.1,70,30.09,10.0,North,8.1,-,N/A,,Overcast,360,2012-12-04 15:53:00
9:53 AM,36.0,24.1,62,30.09,10.0,Variable,3.5,-,N/A,,Overcast,0,2012-12-04 16:53:00
10:53 AM,36.0,24.1,62,30.12,10.0,NE,8.1,-,N/A,,Overcast,50,2012-12-04 17:53:00
11:53 AM,37.9,24.1,57,30.11,10.0,Calm,Calm,-,N/A,,Overcast,0,2012-12-04 18:53:00
12:53 PM,39.0,25.0,57,30.08,10.0,Calm,Calm,-,N/A,,Overcast,0,2012-12-04 19:53:00
1:53 PM,39.9,27.0,60,30.04,10.0,South,12.7,-,N/A,,Overcast,170,2012-12-04 20:53:00
2:53 PM,39.9,28.0,63,30.04,10.0,South,4.6,-,N/A,,Mostly Cloudy,180,2012-12-04 21:53:00
3:53 PM,41.0,28.0,60,30.04,10.0,South,8.1,-,N/A,,Partly Cloudy,190,2012-12-04 22:53:00
4:53 PM,41.0,28.9,62,30.04,10.0,Calm,Calm,-,N/A,,Partly Cloudy,0,2012-12-04 23:53:00
5:53 PM,37.9,30.9,76,30.02,10.0,South,4.6,-,N/A,,Clear,190,2012-12-05 00:53:00
6:53 PM,37.9,30.9,76,30.02,10.0,SE,3.5,-,N/A,,Mostly Cloudy,130,2012-12-05 01:53:00
7:53 PM,39.0,30.9,73,30.01,10.0,SSE,9.2,-,N/A,,Overcast,160,2012-12-05 02:53:00
8:53 PM,39.0,30.9,73,30.01,10.0,SE,8.1,-,N/A,,Overcast,140,2012-12-05 03:53:00
9:53 PM,36.0,30.9,82,30.00,10.0,NNW,3.5,-,N/A,,Overcast,340,2012-12-05 04:53:00
10:53 PM,36.0,30.9,82,29.98,10.0,Calm,Calm,-,N/A,,Overcast,0,2012-12-05 05:53:00
11:53 PM,36.0,30.9,82,29.96,10.0,Calm,Calm,-,N/A,,Mostly Cloudy,0,2012-12-05 06:53:00